Time;durP1;ratioP1;P1;durP2;ratioP2;P2;SDS_P1;SDS_P2;PMS_P1;PMS_P2;Temp;Humidity;BMP_temperature;BMP_pressure;BME280_temperature;BME280_humidity;BME280_pressure;Samples;Min_cycle;Max_cycle;Signal;HPM_P1;HPM_P2
2022/02/17 10:11:55;;;;;;;13.40;12.20;;;16.30;82.80;;;;;;5087296;27;20671;-74
2022/02/17 10:14:22;;;;;;;13.83;12.43;;;14.80;91.30;;;;;;5087130;28;20474;-75
2022/02/17 10:16:54;;;;;;;16.20;12.60;;;15.10;90.70;;;;;;5086849;28;20446;-74
2022/02/17 10:19:21;;;;;;;13.17;11.77;;;15.20;90.50;;;;;;5086889;28;20802;-73
2022/02/17 10:21:49;;;;;;;13.77;12.50;;;14.90;89.70;;;;;;5086865;28;20521;-75
2022/02/17 10:24:36;;;;;;;14.97;12.13;;;14.70;89.70;;;;;;5086754;28;20500;-77
2022/02/17 10:27:07;;;;;;;13.17;11.73;;;14.50;90.90;;;;;;5086819;28;20453;-76
2022/02/17 10:29:34;;;;;;;16.27;14.47;;;14.10;92.00;;;;;;5086637;28;20469;-75
2022/02/17 10:32:06;;;;;;;14.47;11.77;;;13.90;95.00;;;;;;5086622;28;20474;-74
2022/02/17 10:34:32;;;;;;;13.50;12.20;;;13.20;99.90;;;;;;5086714;28;20523;-75
2022/02/17 10:36:59;;;;;;;17.67;12.27;;;13.50;99.90;;;;;;5086863;28;20458;-75
2022/02/17 10:39:27;;;;;;;15.77;11.83;;;13.40;99.90;;;;;;5086579;28;20450;-75
2022/02/17 10:41:55;;;;;;;14.40;13.00;;;13.30;99.90;;;;;;5086772;28;20490;-74
2022/02/17 10:44:25;;;;;;;18.03;11.73;;;13.20;99.90;;;;;;5086740;28;20928;-74
2022/02/17 10:46:52;;;;;;;12.63;11.60;;;13.80;99.90;;;;;;5086763;28;20507;-75
2022/02/17 10:49:20;;;;;;;14.67;12.47;;;14.80;96.10;;;;;;5086304;28;20450;-74
2022/02/17 10:51:49;;;;;;;11.33;9.80;;;14.90;95.60;;;;;;5086374;28;20504;-75
2022/02/17 10:54:20;;;;;;;11.53;10.40;;;14.40;95.90;;;;;;5086582;28;20499;-74
2022/02/17 10:56:51;;;;;;;15.63;11.83;;;14.80;95.80;;;;;;5086234;28;20446;-75
2022/02/17 11:02:05;;;;;;;12.27;11.40;;;16.80;92.00;;;;;;5086101;28;20801;-76
2022/02/17 11:04:33;;;;;;;13.40;12.00;;;18.00;90.30;;;;;;5086093;28;20443;-76
2022/02/17 11:06:59;;;;;;;13.97;12.97;;;18.60;86.60;;;;;;5086003;28;20835;-77
2022/02/17 11:09:26;;;;;;;13.30;12.17;;;18.00;84.60;;;;;;5085968;28;21002;-75
2022/02/17 11:11:55;;;;;;;14.77;13.50;;;18.30;85.00;;;;;;5078006;28;20797;-76
2022/02/17 11:14:38;;;;;;;12.87;11.70;;;18.10;82.80;;;;;;5072774;28;20455;-76
2022/02/17 11:17:09;;;;;;;14.20;13.07;;;18.00;81.70;;;;;;5072439;28;20458;-75
2022/02/17 11:19:37;;;;;;;12.90;11.80;;;18.10;81.10;;;;;;5072473;28;20568;-75
2022/02/17 11:22:05;;;;;;;13.03;12.03;;;17.70;80.80;;;;;;5072234;28;20489;-75
2022/02/17 11:24:46;;;;;;;12.83;11.57;;;17.50;79.40;;;;;;5072334;28;20900;-75
2022/02/17 11:27:13;;;;;;;12.93;11.70;;;16.70;80.10;;;;;;5072368;28;20861;-75
2022/02/17 11:29:41;;;;;;;13.37;12.37;;;17.20;79.00;;;;;;5072348;28;20447;-75
2022/02/17 11:32:14;;;;;;;12.23;11.43;;;17.60;77.30;;;;;;5072249;28;20550;-74
2022/02/17 11:34:43;;;;;;;13.37;12.40;;;17.90;76.00;;;;;;5072417;28;20459;-75
2022/02/17 11:37:44;;;;;;;13.77;12.67;;;18.00;74.60;;;;;;5072431;28;20451;-74
2022/02/17 11:40:15;;;;;;;13.07;11.80;;;17.90;71.40;;;;;;5072046;28;21018;-75
2022/02/17 11:42:44;;;;;;;13.37;12.33;;;16.70;72.40;;;;;;5072142;28;20804;-75
2022/02/17 11:45:13;;;;;;;13.13;12.03;;;15.60;75.30;;;;;;5071844;28;20451;-75
2022/02/17 11:48:06;;;;;;;12.80;11.80;;;15.60;77.80;;;;;;5072114;28;20447;-75
2022/02/17 11:50:35;;;;;;;12.60;11.60;;;16.20;76.90;;;;;;5071938;28;20451;-75
2022/02/17 11:53:38;;;;;;;12.90;11.70;;;16.00;76.30;;;;;;5071677;28;20546;-75
2022/02/17 11:56:34;;;;;;;13.37;12.27;;;16.00;76.00;;;;;;5071747;28;20442;-75
2022/02/17 11:59:01;;;;;;;13.30;12.30;;;16.50;74.30;;;;;;5071657;28;20593;-76
2022/02/17 12:01:40;;;;;;;13.20;11.80;;;16.60;74.80;;;;;;5071697;28;20487;-75
2022/02/17 12:04:17;;;;;;;13.13;12.10;;;17.10;74.40;;;;;;5071330;28;20509;-76
2022/02/17 12:06:45;;;;;;;13.93;12.83;;;17.90;72.40;;;;;;5071548;28;20546;-75
2022/02/17 12:09:35;;;;;;;13.37;12.27;;;17.90;71.50;;;;;;5071231;28;20876;-75
2022/02/17 12:12:40;;;;;;;14.07;12.87;;;17.70;70.90;;;;;;5071554;28;20455;-75
2022/02/17 12:15:14;;;;;;;13.83;12.57;;;17.50;71.30;;;;;;5071461;28;20458;-75
2022/02/17 12:17:44;;;;;;;14.73;13.00;;;17.40;72.70;;;;;;5071290;28;20454;-75
2022/02/17 12:20:15;;;;;;;15.13;13.70;;;17.60;72.50;;;;;;5071345;28;20544;-75
2022/02/17 12:22:53;;;;;;;16.87;14.17;;;17.30;73.20;;;;;;5070444;28;20448;-75
2022/02/17 12:25:23;;;;;;;13.90;12.60;;;17.20;74.10;;;;;;5071272;28;20451;-76
2022/02/17 12:27:52;;;;;;;14.43;13.03;;;17.50;73.80;;;;;;5070892;28;20967;-76
2022/02/17 12:30:30;;;;;;;18.93;12.80;;;17.00;75.40;;;;;;5070843;28;20930;-76
2022/02/17 12:33:19;;;;;;;13.17;11.97;;;17.60;74.00;;;;;;5070755;28;20798;-76
2022/02/17 12:35:51;;;;;;;14.47;13.33;;;17.70;73.80;;;;;;5069122;28;20891;-77
2022/02/17 12:38:21;;;;;;;13.50;12.30;;;17.40;71.70;;;;;;5070790;28;20898;-76
2022/02/17 12:40:48;;;;;;;13.33;12.30;;;16.80;72.40;;;;;;5070222;28;20475;-77
2022/02/17 12:43:29;;;;;;;14.30;12.90;;;16.70;73.20;;;;;;5072131;28;20504;-76
2022/02/17 12:45:57;;;;;;;14.93;13.77;;;17.00;71.70;;;;;;5070762;28;20447;-75
2022/02/17 12:48:28;;;;;;;14.70;13.40;;;17.20;71.20;;;;;;5070694;28;20505;-76
2022/02/17 12:50:56;;;;;;;14.03;12.83;;;16.70;71.50;;;;;;5070690;28;20478;-76
2022/02/17 12:53:23;;;;;;;12.63;11.47;;;16.60;72.70;;;;;;5070917;28;20840;-76
2022/02/17 12:55:52;;;;;;;14.20;12.80;;;16.80;73.10;;;;;;5070472;28;20458;-76
2022/02/17 12:58:28;;;;;;;13.60;12.17;;;16.70;73.10;;;;;;5070430;28;20478;-75
2022/02/17 13:00:55;;;;;;;13.70;12.30;;;16.40;73.00;;;;;;5070602;28;20486;-76
2022/02/17 13:03:36;;;;;;;13.93;12.67;;;16.00;73.10;;;;;;5070494;28;20474;-74
2022/02/17 13:06:18;;;;;;;14.17;12.97;;;16.00;74.30;;;;;;5070569;28;20455;-76
2022/02/17 13:08:46;;;;;;;13.40;12.30;;;16.10;72.00;;;;;;5070229;28;20490;-76
2022/02/17 13:11:13;;;;;;;14.50;13.10;;;16.00;72.60;;;;;;5070028;28;20609;-77
2022/02/17 13:13:40;;;;;;;14.10;12.67;;;16.30;70.90;;;;;;5070270;28;20447;-76
2022/02/17 13:16:08;;;;;;;14.57;13.20;;;16.30;70.90;;;;;;5070481;28;20524;-76
2022/02/17 13:18:35;;;;;;;13.37;11.83;;;16.30;71.20;;;;;;5069968;28;21041;-77
2022/02/17 13:21:14;;;;;;;13.67;12.37;;;16.10;70.70;;;;;;5069940;28;20491;-77
2022/02/17 13:23:42;;;;;;;13.40;12.30;;;16.00;72.00;;;;;;5070063;28;20492;-75
2022/02/17 13:26:26;;;;;;;14.53;13.30;;;16.20;71.40;;;;;;5070264;28;20466;-76
2022/02/17 13:28:54;;;;;;;15.37;12.37;;;15.90;72.40;;;;;;5070177;28;20447;-76
2022/02/17 13:31:21;;;;;;;14.67;12.93;;;15.30;75.10;;;;;;5069991;28;20454;-74
2022/02/17 13:33:48;;;;;;;14.07;12.70;;;15.30;75.40;;;;;;5069510;28;20451;-75
2022/02/17 13:36:28;;;;;;;15.53;13.77;;;15.00;76.00;;;;;;5069565;28;20454;-76
2022/02/17 13:39:06;;;;;;;15.87;14.63;;;15.00;77.10;;;;;;5070127;28;20482;-76
2022/02/17 13:41:33;;;;;;;16.43;12.70;;;14.90;77.00;;;;;;5069633;28;20483;-75
2022/02/17 13:44:00;;;;;;;14.53;12.73;;;15.00;77.60;;;;;;5069966;28;20452;-76
2022/02/17 13:46:28;;;;;;;14.27;13.10;;;14.90;78.00;;;;;;5069905;28;20457;-75
2022/02/17 13:48:55;;;;;;;16.57;12.53;;;14.90;78.50;;;;;;5070076;28;20815;-74
2022/02/17 13:51:22;;;;;;;14.73;12.67;;;14.90;78.70;;;;;;5069944;28;20440;-75
2022/02/17 13:53:57;;;;;;;14.20;12.40;;;14.90;78.60;;;;;;5069590;28;20508;-75
2022/02/17 13:56:25;;;;;;;14.07;12.67;;;14.80;79.40;;;;;;5069874;28;20546;-74
2022/02/17 13:58:59;;;;;;;15.73;13.20;;;14.90;78.30;;;;;;5069841;28;20517;-75
2022/02/17 14:01:42;;;;;;;14.33;12.13;;;14.70;77.60;;;;;;5069453;28;21004;-74
2022/02/17 14:04:14;;;;;;;18.50;13.67;;;14.70;77.50;;;;;;5068343;28;20458;-74
2022/02/17 14:06:42;;;;;;;14.17;12.87;;;14.60;78.40;;;;;;5069534;28;20783;-75
2022/02/17 14:09:10;;;;;;;13.73;12.20;;;14.70;78.20;;;;;;5069655;28;20557;-75
2022/02/17 14:11:37;;;;;;;15.10;13.47;;;14.70;77.80;;;;;;5069558;28;20482;-75
2022/02/17 14:14:03;;;;;;;13.57;12.40;;;14.70;77.70;;;;;;5069609;28;20451;-74
2022/02/17 14:16:30;;;;;;;18.00;13.27;;;14.60;77.30;;;;;;5069291;28;20447;-76
2022/02/17 14:18:57;;;;;;;17.47;13.80;;;14.50;77.80;;;;;;5069292;28;20443;-75
2022/02/17 14:21:23;;;;;;;15.97;12.20;;;14.40;77.70;;;;;;5069634;28;21050;-75
2022/02/17 14:23:51;;;;;;;13.83;12.40;;;14.40;78.70;;;;;;5069503;28;20451;-76
2022/02/17 14:26:19;;;;;;;14.13;13.00;;;14.30;76.80;;;;;;5069257;28;20491;-76
2022/02/17 14:28:46;;;;;;;13.70;11.33;;;14.30;77.10;;;;;;5069304;28;20576;-76
2022/02/17 14:31:12;;;;;;;12.87;11.87;;;14.20;77.00;;;;;;5069240;28;20456;-75
2022/02/17 14:33:39;;;;;;;13.40;12.20;;;14.30;77.20;;;;;;5069517;28;20450;-76
2022/02/17 14:36:07;;;;;;;12.77;11.63;;;14.40;76.70;;;;;;5069645;28;20443;-75
2022/02/17 14:38:34;;;;;;;14.73;11.63;;;14.30;76.70;;;;;;5069428;28;20454;-75
2022/02/17 14:41:01;;;;;;;13.43;12.27;;;14.30;76.00;;;;;;5069176;28;20483;-75
2022/02/17 14:43:30;;;;;;;15.77;11.50;;;14.20;76.20;;;;;;5069156;28;20458;-76
2022/02/17 14:45:57;;;;;;;14.50;13.20;;;14.00;76.30;;;;;;5069231;28;20475;-75
2022/02/17 14:48:24;;;;;;;12.83;11.57;;;13.90;77.30;;;;;;5073031;28;20470;-75
2022/02/17 14:50:52;;;;;;;14.40;11.90;;;14.10;77.30;;;;;;5073053;28;20976;-75
2022/02/17 14:53:21;;;;;;;12.50;11.50;;;14.20;77.40;;;;;;5072882;28;20933;-75
2022/02/17 14:55:49;;;;;;;13.20;11.80;;;14.10;76.60;;;;;;5072850;28;20451;-75
2022/02/17 14:58:16;;;;;;;12.93;11.50;;;14.00;77.00;;;;;;5072919;28;20701;-75
2022/02/17 15:00:44;;;;;;;14.47;12.90;;;13.90;77.50;;;;;;5072968;28;20446;-75
2022/02/17 15:03:11;;;;;;;13.57;12.20;;;13.90;78.30;;;;;;5072770;28;20504;-75
2022/02/17 15:05:38;;;;;;;13.37;12.07;;;13.90;77.90;;;;;;5073641;28;20443;-75
2022/02/17 15:08:06;;;;;;;13.13;11.97;;;13.90;78.20;;;;;;5075196;28;20459;-75
2022/02/17 15:10:33;;;;;;;16.07;12.60;;;13.90;78.30;;;;;;5074971;28;20475;-76
2022/02/17 15:12:59;;;;;;;14.30;12.90;;;13.80;78.80;;;;;;5073366;28;20451;-75
2022/02/17 15:15:26;;;;;;;12.70;11.40;;;13.70;79.10;;;;;;5072998;28;20512;-75
2022/02/17 15:17:54;;;;;;;13.83;12.50;;;13.70;79.40;;;;;;5072587;28;20953;-75
2022/02/17 15:20:20;;;;;;;13.80;12.40;;;13.60;80.10;;;;;;5072391;28;20841;-76
2022/02/17 15:22:50;;;;;;;12.83;11.80;;;13.70;80.50;;;;;;5072263;28;20578;-75
2022/02/17 15:25:18;;;;;;;13.60;12.40;;;13.60;80.60;;;;;;5072165;28;20534;-75
2022/02/17 15:27:46;;;;;;;13.87;12.43;;;13.40;80.60;;;;;;5072148;28;20493;-76
2022/02/17 15:30:13;;;;;;;13.27;11.97;;;13.20;81.60;;;;;;5071952;28;20554;-75
2022/02/17 15:32:40;;;;;;;12.90;11.90;;;13.20;82.20;;;;;;5072148;28;20804;-75
2022/02/17 15:35:10;;;;;;;12.50;11.43;;;13.30;82.30;;;;;;5072300;28;20455;-75
2022/02/17 15:37:37;;;;;;;13.80;12.50;;;13.30;82.40;;;;;;5072066;28;20535;-75
2022/02/17 15:40:04;;;;;;;11.80;11.03;;;13.10;82.90;;;;;;5071888;28;20508;-75
2022/02/17 15:42:31;;;;;;;12.10;11.30;;;13.10;83.80;;;;;;5071784;28;20498;-75
2022/02/17 15:44:58;;;;;;;12.80;11.50;;;13.10;84.30;;;;;;5071760;28;20508;-76
2022/02/17 15:47:26;;;;;;;13.87;12.50;;;13.10;84.60;;;;;;5071735;28;20443;-76
2022/02/17 15:49:53;;;;;;;13.20;11.90;;;12.90;85.20;;;;;;5072116;28;20459;-77
2022/02/17 15:52:21;;;;;;;16.53;12.57;;;12.80;86.10;;;;;;5071574;28;20520;-76
2022/02/17 15:54:48;;;;;;;11.40;10.37;;;12.60;86.50;;;;;;5071528;28;20455;-75
2022/02/17 15:57:15;;;;;;;14.57;12.13;;;12.60;86.70;;;;;;5071450;28;20548;-77
2022/02/17 15:59:42;;;;;;;12.13;11.20;;;12.70;86.70;;;;;;5071651;28;20443;-75
2022/02/17 16:02:09;;;;;;;13.13;11.50;;;12.70;86.60;;;;;;5071600;28;20544;-76
2022/02/17 16:04:36;;;;;;;15.77;11.67;;;12.70;87.00;;;;;;5071696;28;20451;-75
2022/02/17 16:07:04;;;;;;;12.70;11.60;;;12.70;87.30;;;;;;5071530;28;20454;-75
2022/02/17 16:09:32;;;;;;;12.80;11.50;;;12.70;87.90;;;;;;5071244;28;20868;-76
2022/02/17 16:12:00;;;;;;;13.30;11.90;;;12.70;87.70;;;;;;5071436;28;20791;-76
2022/02/17 16:14:27;;;;;;;17.07;12.30;;;12.60;88.00;;;;;;5071267;28;20450;-76
2022/02/17 16:16:54;;;;;;;13.90;12.63;;;12.60;89.00;;;;;;5071660;28;20447;-76
2022/02/17 16:19:21;;;;;;;11.93;10.83;;;12.50;89.00;;;;;;5071457;28;20462;-76
2022/02/17 16:21:51;;;;;;;17.60;12.20;;;12.40;89.70;;;;;;5071158;28;21017;-75
2022/02/17 16:24:18;;;;;;;14.30;12.83;;;12.30;90.10;;;;;;5071154;28;20516;-76
2022/02/17 16:26:46;;;;;;;12.33;11.20;;;12.20;90.40;;;;;;5070953;28;20707;-75
2022/02/17 16:29:17;;;;;;;13.90;11.57;;;12.20;90.70;;;;;;5070942;28;20470;-76
2022/02/17 16:31:44;;;;;;;16.53;12.60;;;12.00;91.20;;;;;;5070808;28;20549;-75
2022/02/17 16:34:11;;;;;;;15.40;12.20;;;11.90;91.70;;;;;;5064229;28;20464;-75
2022/02/17 16:36:38;;;;;;;13.07;11.90;;;11.80;92.20;;;;;;5059949;28;20464;-74
2022/02/17 16:39:11;;;;;;;12.73;11.50;;;11.80;92.60;;;;;;5050709;28;20970;-75
2022/02/17 16:41:38;;;;;;;12.87;9.90;;;11.80;93.00;;;;;;5051220;28;20488;-74
2022/02/17 16:44:07;;;;;;;11.37;10.47;;;11.80;93.30;;;;;;5050734;28;20513;-75
2022/02/17 16:46:34;;;;;;;11.00;9.90;;;11.70;93.60;;;;;;5050281;28;20931;-75
2022/02/17 16:49:01;;;;;;;16.00;11.27;;;11.60;94.00;;;;;;5050430;28;20447;-75
2022/02/17 16:51:29;;;;;;;10.70;9.80;;;11.50;94.10;;;;;;5050422;28;20444;-75
2022/02/17 16:53:56;;;;;;;17.13;11.50;;;11.50;93.80;;;;;;5050694;28;20479;-75
2022/02/17 16:56:23;;;;;;;18.10;11.43;;;11.40;93.70;;;;;;5050796;28;20491;-76
2022/02/17 16:58:50;;;;;;;13.60;12.13;;;11.40;94.10;;;;;;5048004;28;20448;-76
2022/02/17 17:01:19;;;;;;;12.30;11.50;;;11.30;94.10;;;;;;5049403;28;20483;-77
2022/02/17 17:03:46;;;;;;;20.40;12.43;;;11.20;94.40;;;;;;5049925;28;20459;-76
2022/02/17 17:06:13;;;;;;;20.40;11.70;;;11.20;94.50;;;;;;5049863;28;20459;-76
2022/02/17 17:08:40;;;;;;;14.70;10.93;;;11.20;94.40;;;;;;5049854;28;20554;-76
2022/02/17 17:11:07;;;;;;;13.33;11.90;;;11.20;94.60;;;;;;5049465;28;20559;-77
2022/02/17 17:13:34;;;;;;;17.77;12.00;;;11.10;94.90;;;;;;5049648;28;20459;-75
2022/02/17 17:16:01;;;;;;;13.87;11.30;;;11.10;95.10;;;;;;5049710;28;20517;-76
2022/02/17 17:18:29;;;;;;;18.77;13.10;;;11.00;95.50;;;;;;5049717;28;20938;-76
2022/02/17 17:20:56;;;;;;;14.20;11.30;;;11.00;95.60;;;;;;5049749;28;20444;-76
2022/02/17 17:23:23;;;;;;;13.17;11.83;;;11.00;95.70;;;;;;5049782;28;20534;-75
2022/02/17 17:25:51;;;;;;;13.23;11.60;;;10.90;95.90;;;;;;5049592;28;20448;-76
2022/02/17 17:28:18;;;;;;;13.27;11.93;;;10.90;95.90;;;;;;5049648;28;20450;-77
2022/02/17 17:30:45;;;;;;;17.07;12.20;;;10.80;96.10;;;;;;5049521;28;20466;-76
2022/02/17 17:33:12;;;;;;;13.73;11.10;;;10.70;96.30;;;;;;5049524;28;21012;-76
2022/02/17 17:35:40;;;;;;;14.83;12.00;;;10.80;96.40;;;;;;5049617;28;20458;-76
2022/02/17 17:38:07;;;;;;;18.00;11.90;;;10.70;96.50;;;;;;5049907;28;20451;-76
2022/02/17 17:40:33;;;;;;;15.20;11.20;;;10.70;96.70;;;;;;5049331;28;20455;-75
2022/02/17 17:43:00;;;;;;;13.77;10.47;;;10.70;96.70;;;;;;5049513;28;20513;-76
2022/02/17 17:45:27;;;;;;;14.67;11.40;;;10.70;96.80;;;;;;5049392;28;20456;-76
2022/02/17 17:47:58;;;;;;;13.57;11.03;;;10.70;97.00;;;;;;5049311;28;20459;-76
2022/02/17 17:50:26;;;;;;;18.43;11.70;;;10.70;97.00;;;;;;5049430;28;20455;-76
2022/02/17 17:52:54;;;;;;;12.53;11.20;;;10.70;96.90;;;;;;5049542;28;20456;-76
2022/02/17 17:55:21;;;;;;;17.10;12.20;;;10.70;96.70;;;;;;5049345;28;20452;-76
2022/02/17 17:57:48;;;;;;;12.97;10.53;;;10.70;96.80;;;;;;5049117;28;20791;-76
